createdAt,value
2022-08-20T00:01:56.743Z,8.40
2022-08-20T00:04:24.291Z,7.50
2022-08-20T00:06:52.297Z,7.00
2022-08-20T00:09:19.760Z,7.10
2022-08-20T00:11:47.205Z,6.60
2022-08-20T00:14:14.658Z,6.50
2022-08-20T00:16:42.712Z,6.60
2022-08-20T00:19:10.434Z,7.00
2022-08-20T00:21:38.034Z,7.00
2022-08-20T00:24:05.936Z,6.70
2022-08-20T00:26:33.500Z,7.30
2022-08-20T00:29:00.986Z,7.30
2022-08-20T00:31:28.659Z,7.10
2022-08-20T00:33:56.140Z,7.10
2022-08-20T00:36:32.507Z,6.40
2022-08-20T00:39:00.879Z,6.60
2022-08-20T00:41:29.068Z,6.40
2022-08-20T00:44:15.506Z,6.30
2022-08-20T00:46:44.612Z,6.80
2022-08-20T00:49:22.140Z,6.70
2022-08-20T00:52:13.572Z,6.50
2022-08-20T00:54:49.267Z,7.10
2022-08-20T00:57:28.876Z,7.00
2022-08-20T01:00:22.206Z,7.60
2022-08-20T01:02:50.618Z,7.80
2022-08-20T01:05:18.894Z,6.60
2022-08-20T01:07:46.447Z,6.50
2022-08-20T01:10:19.364Z,6.80
2022-08-20T01:12:49.278Z,6.70
2022-08-20T01:15:26.909Z,7.30
2022-08-20T01:18:01.846Z,6.70
2022-08-20T01:20:36.165Z,7.20
2022-08-20T01:23:32.503Z,7.30
2022-08-20T01:26:30.192Z,7.30
2022-08-20T01:29:03.089Z,7.20
2022-08-20T01:31:33.233Z,7.20
2022-08-20T01:34:03.577Z,7.20
2022-08-20T01:36:41.904Z,7.20
2022-08-20T01:39:15.189Z,7.30
2022-08-20T01:41:58.718Z,8.10
2022-08-20T01:44:27.288Z,7.70
2022-08-20T01:46:57.770Z,8.10
2022-08-20T01:49:29.908Z,9.20
2022-08-20T01:52:05.409Z,9.20
2022-08-20T01:54:34.148Z,8.30
2022-08-20T01:57:12.208Z,8.70
2022-08-20T01:59:40.378Z,8.50
2022-08-20T02:02:08.860Z,8.40
2022-08-20T02:04:36.839Z,9.20
2022-08-20T02:07:07.165Z,9.20
2022-08-20T02:09:39.248Z,8.80
2022-08-20T02:12:09.339Z,8.50
2022-08-20T02:14:42.338Z,8.10
2022-08-20T02:17:11.319Z,8.50
2022-08-20T02:19:45.499Z,8.20
2022-08-20T02:22:31.915Z,9.70
2022-08-20T02:24:59.351Z,8.50
2022-08-20T02:27:27.722Z,8.60
2022-08-20T02:29:55.241Z,8.80
2022-08-20T02:32:24.574Z,8.80
2022-08-20T02:35:04.189Z,8.00
2022-08-20T02:37:31.822Z,8.50
2022-08-20T02:39:59.707Z,8.40
2022-08-20T02:42:27.329Z,9.20
2022-08-20T02:44:54.848Z,8.90
2022-08-20T02:47:22.257Z,8.80
2022-08-20T02:49:49.686Z,8.10
2022-08-20T02:52:17.111Z,8.20
2022-08-20T02:54:44.556Z,8.80
2022-08-20T02:57:16.916Z,9.20
2022-08-20T02:59:45.222Z,8.70
2022-08-20T03:02:13.331Z,9.30
2022-08-20T03:04:42.788Z,8.90
2022-08-20T03:07:10.544Z,8.60
2022-08-20T03:09:38.486Z,9.20
2022-08-20T03:12:07.496Z,8.60
2022-08-20T03:14:35.706Z,8.40
2022-08-20T03:17:03.941Z,8.30
2022-08-20T03:19:31.396Z,9.40
2022-08-20T03:21:58.969Z,8.90
2022-08-20T03:24:26.431Z,10.00
2022-08-20T03:26:54.019Z,9.10
2022-08-20T03:29:21.506Z,8.50
2022-08-20T03:31:48.994Z,9.20
2022-08-20T03:34:16.459Z,9.10
2022-08-20T03:36:43.919Z,8.90
2022-08-20T03:39:13.190Z,9.00
2022-08-20T03:41:40.660Z,9.40
2022-08-20T03:44:08.182Z,9.00
2022-08-20T03:46:36.000Z,8.50
2022-08-20T03:49:03.923Z,8.60
2022-08-20T03:51:43.476Z,9.10
2022-08-20T03:54:19.891Z,9.40
2022-08-20T03:56:47.811Z,9.50
2022-08-20T03:59:15.499Z,9.50
2022-08-20T04:01:45.975Z,10.00
2022-08-20T04:04:15.690Z,9.50
2022-08-20T04:06:43.992Z,9.80
2022-08-20T04:09:12.402Z,9.20
2022-08-20T04:11:43.757Z,9.20
2022-08-20T04:14:12.913Z,9.00
2022-08-20T04:16:47.549Z,9.00
2022-08-20T04:19:16.734Z,8.90
2022-08-20T04:21:44.423Z,10.10
2022-08-20T04:24:21.926Z,10.10
2022-08-20T04:26:59.433Z,9.30
2022-08-20T04:29:32.520Z,8.50
2022-08-20T04:32:05.645Z,9.50
2022-08-20T04:34:33.835Z,8.90
2022-08-20T04:37:01.252Z,8.60
2022-08-20T04:39:28.679Z,9.00
2022-08-20T04:41:56.167Z,8.50
2022-08-20T04:44:23.648Z,10.70
2022-08-20T04:46:51.052Z,14.70
2022-08-20T04:49:20.488Z,9.50
2022-08-20T04:51:47.879Z,9.80
2022-08-20T04:54:15.611Z,9.30
2022-08-20T04:56:43.224Z,9.30
2022-08-20T04:59:10.678Z,8.50
2022-08-20T05:01:38.198Z,8.60
2022-08-20T05:04:05.653Z,8.20
2022-08-20T05:06:33.365Z,9.10
2022-08-20T05:09:01.437Z,9.20
2022-08-20T05:11:34.559Z,10.10
2022-08-20T05:14:09.318Z,8.10
2022-08-20T05:16:39.233Z,7.70
2022-08-20T05:19:10.026Z,8.10
2022-08-20T05:21:38.793Z,8.70
2022-08-20T05:24:07.341Z,8.70
2022-08-20T05:26:34.915Z,9.00
2022-08-20T05:29:05.672Z,9.60
2022-08-20T05:31:34.480Z,8.30
2022-08-20T05:34:10.716Z,7.70
2022-08-20T05:36:42.408Z,8.70
2022-08-20T05:39:10.305Z,8.00
2022-08-20T05:41:39.359Z,8.30
2022-08-20T05:44:14.189Z,9.40
2022-08-20T05:46:44.092Z,8.40
2022-08-20T05:49:18.930Z,8.30
2022-08-20T05:51:46.824Z,8.40
2022-08-20T05:54:14.767Z,10.20
2022-08-20T05:56:42.302Z,7.60
2022-08-20T05:59:12.329Z,8.40
2022-08-20T06:01:41.382Z,8.10
2022-08-20T06:04:26.711Z,8.90
2022-08-20T06:07:06.420Z,10.40
2022-08-20T06:09:36.044Z,8.60
2022-08-20T06:12:06.415Z,8.60
2022-08-20T06:14:35.166Z,7.80
2022-08-20T06:17:13.551Z,8.00
2022-08-20T06:19:44.113Z,8.60
2022-08-20T06:22:19.748Z,7.70
2022-08-20T06:24:51.892Z,6.90
2022-08-20T06:27:20.281Z,8.50
2022-08-20T06:29:47.895Z,7.30
2022-08-20T06:32:15.618Z,7.80
2022-08-20T06:34:50.624Z,7.60
2022-08-20T06:37:23.185Z,7.90
2022-08-20T06:40:09.821Z,7.60
2022-08-20T06:42:44.543Z,7.20
2022-08-20T06:45:24.440Z,7.10
2022-08-20T06:47:55.885Z,8.00
2022-08-20T06:50:28.396Z,7.60
2022-08-20T06:52:56.410Z,7.70
2022-08-20T06:55:24.362Z,7.50
2022-08-20T06:58:02.816Z,7.20
2022-08-20T07:00:33.096Z,7.50
2022-08-20T07:03:02.096Z,9.10
2022-08-20T07:05:34.086Z,8.00
2022-08-20T07:08:01.770Z,7.20
2022-08-20T07:10:30.519Z,8.60
2022-08-20T07:13:00.134Z,8.00
2022-08-20T07:15:27.694Z,7.80
2022-08-20T07:18:01.157Z,7.30
2022-08-20T07:20:31.817Z,7.60
2022-08-20T07:23:00.701Z,7.30
2022-08-20T07:25:30.486Z,7.50
2022-08-20T07:28:07.399Z,7.50
2022-08-20T07:30:56.075Z,15.70
2022-08-20T07:33:28.573Z,15.60
2022-08-20T07:35:58.947Z,18.10
2022-08-20T07:38:29.039Z,15.70
2022-08-20T07:41:02.035Z,14.40
2022-08-20T07:43:30.383Z,11.20
2022-08-20T07:46:07.490Z,45.50
2022-08-20T07:48:39.803Z,18.90
2022-08-20T07:51:10.796Z,12.10
2022-08-20T07:53:39.735Z,16.40
2022-08-20T07:56:11.573Z,8.60
2022-08-20T07:58:49.649Z,7.40
2022-08-20T08:01:20.227Z,6.60
2022-08-20T08:03:50.007Z,7.90
2022-08-20T08:06:29.538Z,7.20
2022-08-20T08:09:05.860Z,7.10
2022-08-20T08:11:37.895Z,7.60
2022-08-20T08:14:08.016Z,7.40
2022-08-20T08:16:36.553Z,6.70
2022-08-20T08:19:08.965Z,7.60
2022-08-20T08:21:36.516Z,6.80
2022-08-20T08:24:04.866Z,7.10
2022-08-20T08:26:32.418Z,7.10
2022-08-20T08:28:59.856Z,7.10
2022-08-20T08:31:27.410Z,7.10
2022-08-20T08:33:55.551Z,7.00
2022-08-20T08:36:24.602Z,7.30
2022-08-20T08:38:54.007Z,7.60
2022-08-20T08:41:29.443Z,6.40
2022-08-20T08:44:06.018Z,7.20
2022-08-20T08:46:40.220Z,7.10
2022-08-20T08:49:12.742Z,7.40
2022-08-20T08:51:45.046Z,7.10
2022-08-20T08:54:18.553Z,6.90
2022-08-20T08:56:49.761Z,6.90
2022-08-20T08:59:20.627Z,7.50
2022-08-20T09:01:56.961Z,7.30
2022-08-20T09:04:40.957Z,7.50
2022-08-20T09:07:16.214Z,7.30
2022-08-20T09:09:46.825Z,7.40
2022-08-20T09:12:20.185Z,7.40
2022-08-20T09:14:50.061Z,7.70
2022-08-20T09:17:20.634Z,7.60
2022-08-20T09:19:50.074Z,7.40
2022-08-20T09:22:21.210Z,7.80
2022-08-20T09:24:49.910Z,7.70
2022-08-20T09:27:18.052Z,8.20
2022-08-20T09:29:45.799Z,7.40
2022-08-20T09:32:21.352Z,8.30
2022-08-20T09:34:55.992Z,8.10
2022-08-20T09:37:33.596Z,8.10
2022-08-20T09:40:07.757Z,8.50
2022-08-20T09:42:40.949Z,8.10
2022-08-20T09:45:11.521Z,8.40
2022-08-20T09:47:43.837Z,8.10
2022-08-20T09:50:25.630Z,8.10
2022-08-20T09:52:55.706Z,7.80
2022-08-20T09:55:35.435Z,8.60
2022-08-20T09:58:08.130Z,7.90
2022-08-20T10:00:35.702Z,9.80
2022-08-20T10:03:03.272Z,9.00
2022-08-20T10:05:31.529Z,9.50
2022-08-20T10:07:59.576Z,8.50
2022-08-20T10:10:27.064Z,9.10
2022-08-20T10:12:55.169Z,9.70
2022-08-20T10:15:22.772Z,8.90
2022-08-20T10:17:50.273Z,8.30
2022-08-20T10:20:18.902Z,9.00
2022-08-20T10:22:46.455Z,9.30
2022-08-20T10:25:14.008Z,9.50
2022-08-20T10:27:41.500Z,9.10
2022-08-20T10:30:09.945Z,9.10
2022-08-20T10:32:37.389Z,8.40
2022-08-20T10:35:05.149Z,9.20
2022-08-20T10:37:34.811Z,9.10
2022-08-20T10:40:03.544Z,9.00
2022-08-20T10:42:31.003Z,8.80
2022-08-20T10:44:58.447Z,8.80
2022-08-20T10:47:29.528Z,9.50
2022-08-20T10:50:00.423Z,8.40
2022-08-20T10:52:28.811Z,8.40
2022-08-20T10:54:56.615Z,8.10
2022-08-20T10:57:26.839Z,8.60
2022-08-20T10:59:56.360Z,7.80
2022-08-20T11:02:24.492Z,8.70
2022-08-20T11:04:53.226Z,9.20
2022-08-20T11:07:50.848Z,9.00
2022-08-20T11:10:13.755Z,8.30
2022-08-20T11:12:45.491Z,8.50
2022-08-20T11:15:14.937Z,8.50
2022-08-20T11:17:44.324Z,8.60
2022-08-20T11:20:14.873Z,8.80
2022-08-20T11:22:42.378Z,10.10
2022-08-20T11:25:10.873Z,9.50
2022-08-20T11:27:41.669Z,10.00
2022-08-20T11:30:13.838Z,9.60
2022-08-20T11:32:41.930Z,8.50
2022-08-20T11:35:40.630Z,9.70
2022-08-20T11:38:00.681Z,12.70
2022-08-20T11:40:30.452Z,9.20
2022-08-20T11:43:14.115Z,10.80
2022-08-20T11:45:42.401Z,10.40
2022-08-20T11:48:09.848Z,10.10
2022-08-20T11:50:37.392Z,9.30
2022-08-20T11:53:04.814Z,9.80
2022-08-20T11:55:32.655Z,10.30
2022-08-20T11:58:01.132Z,10.40
2022-08-20T12:00:33.151Z,9.80
2022-08-20T12:03:05.004Z,10.50
2022-08-20T12:05:32.967Z,9.90
2022-08-20T12:08:01.985Z,10.00
2022-08-20T12:10:30.682Z,10.10
2022-08-20T12:12:58.632Z,9.60
2022-08-20T12:15:27.747Z,12.60
2022-08-20T12:17:56.403Z,10.40
2022-08-20T12:20:24.333Z,9.90
2022-08-20T12:22:53.882Z,10.50
2022-08-20T12:25:21.491Z,10.30
2022-08-20T12:27:48.909Z,10.90
2022-08-20T12:30:19.762Z,10.30
2022-08-20T12:32:47.601Z,10.40
2022-08-20T12:35:17.112Z,10.70
2022-08-20T12:37:47.110Z,10.70
2022-08-20T12:40:25.523Z,11.00
2022-08-20T12:43:04.963Z,10.80
2022-08-20T12:45:34.527Z,10.80
2022-08-20T12:48:14.211Z,10.70
2022-08-20T12:50:45.572Z,10.50
2022-08-20T12:53:13.184Z,10.60
2022-08-20T12:55:40.645Z,10.80
2022-08-20T12:58:10.036Z,10.90
2022-08-20T13:00:43.397Z,10.80
2022-08-20T13:03:12.899Z,10.00
2022-08-20T13:05:40.841Z,10.10
2022-08-20T13:08:10.574Z,10.80
2022-08-20T13:10:45.491Z,10.90
2022-08-20T13:13:20.845Z,9.60
2022-08-20T13:15:51.641Z,9.90
2022-08-20T13:18:20.602Z,10.90
2022-08-20T13:20:48.961Z,11.00
2022-08-20T13:23:16.496Z,10.00
2022-08-20T13:25:44.024Z,10.10
2022-08-20T13:28:11.561Z,10.20
2022-08-20T13:30:40.915Z,10.30
2022-08-20T13:33:08.505Z,10.30
2022-08-20T13:35:36.010Z,10.20
2022-08-20T13:38:03.564Z,11.10
2022-08-20T13:40:31.107Z,9.60
2022-08-20T13:43:04.504Z,10.90
2022-08-20T13:45:36.297Z,11.30
2022-08-20T13:48:04.900Z,9.70
2022-08-20T13:50:36.000Z,10.00
2022-08-20T13:53:04.357Z,9.90
2022-08-20T13:55:34.732Z,11.10
2022-08-20T13:58:07.720Z,10.40
2022-08-20T14:00:36.103Z,9.80
2022-08-20T14:03:05.601Z,10.90
2022-08-20T14:05:34.383Z,11.10
2022-08-20T14:08:20.642Z,12.20
2022-08-20T14:10:51.569Z,10.40
2022-08-20T14:13:23.207Z,11.40
2022-08-20T14:15:51.061Z,11.40
2022-08-20T14:18:19.211Z,10.50
2022-08-20T14:20:46.811Z,10.30
2022-08-20T14:23:15.282Z,10.10
2022-08-20T14:25:46.291Z,10.20
2022-08-20T14:28:18.252Z,11.50
2022-08-20T14:30:52.893Z,10.60
2022-08-20T14:33:23.024Z,10.00
2022-08-20T14:35:52.139Z,10.90
2022-08-20T14:38:19.677Z,9.90
2022-08-20T14:40:47.361Z,9.50
2022-08-20T14:43:14.846Z,11.80
2022-08-20T14:45:42.380Z,9.40
2022-08-20T14:48:10.012Z,10.20
2022-08-20T14:50:37.480Z,10.30
2022-08-20T14:53:05.356Z,10.60
2022-08-20T14:55:37.238Z,11.30
2022-08-20T14:58:12.980Z,10.60
2022-08-20T15:00:42.041Z,11.30
2022-08-20T15:03:09.599Z,10.80
2022-08-20T15:05:39.498Z,11.00
2022-08-20T15:08:10.511Z,10.90
2022-08-20T15:10:39.574Z,9.30
2022-08-20T15:13:08.142Z,9.80
2022-08-20T15:15:35.739Z,10.70
2022-08-20T15:18:03.461Z,9.80
2022-08-20T15:20:33.843Z,10.10
2022-08-20T15:23:02.247Z,10.40
2022-08-20T15:25:36.443Z,13.50
2022-08-20T15:28:08.667Z,9.10
2022-08-20T15:30:39.503Z,10.50
2022-08-20T15:33:08.711Z,10.40
2022-08-20T15:35:36.367Z,10.20
2022-08-20T15:38:04.168Z,9.20
2022-08-20T15:40:32.691Z,9.30
2022-08-20T15:43:02.885Z,9.80
2022-08-20T15:45:31.552Z,11.40
2022-08-20T15:48:01.834Z,10.50
2022-08-20T15:50:47.133Z,9.40
2022-08-20T15:53:37.713Z,10.20
2022-08-20T15:56:27.484Z,10.40
2022-08-20T15:59:10.906Z,10.10
2022-08-20T16:01:52.387Z,10.30
2022-08-20T16:04:50.696Z,11.40
2022-08-20T16:07:43.432Z,10.20
2022-08-20T16:10:49.942Z,10.00
2022-08-20T16:13:33.336Z,12.10
2022-08-20T16:16:02.454Z,13.60
2022-08-20T16:18:34.701Z,10.70
2022-08-20T16:21:09.000Z,11.40
2022-08-20T16:23:39.480Z,11.90
2022-08-20T16:26:32.239Z,16.70
2022-08-20T16:29:19.944Z,10.90
2022-08-20T16:31:53.299Z,13.50
2022-08-20T16:34:42.905Z,11.50
2022-08-20T16:37:31.066Z,11.10
2022-08-20T16:40:12.932Z,10.70
2022-08-20T16:42:44.305Z,11.80
2022-08-20T16:45:24.232Z,10.60
2022-08-20T16:47:55.593Z,11.80
2022-08-20T16:50:27.691Z,10.40
2022-08-20T16:52:55.393Z,9.90
2022-08-20T16:55:24.072Z,9.70
2022-08-20T16:57:53.698Z,10.60
2022-08-20T17:00:44.830Z,10.40
2022-08-20T17:03:39.165Z,9.70
2022-08-20T17:06:27.033Z,9.10
2022-08-20T17:08:55.305Z,10.00
2022-08-20T17:11:25.810Z,9.90
2022-08-20T17:14:07.905Z,9.00
2022-08-20T17:16:48.411Z,10.50
2022-08-20T17:19:35.000Z,9.60
2022-08-20T17:22:11.866Z,10.80
2022-08-20T17:24:40.358Z,11.40
2022-08-20T17:27:15.969Z,16.80
2022-08-20T17:29:56.224Z,16.50
2022-08-20T17:32:26.731Z,16.70
2022-08-20T17:34:57.875Z,19.00
2022-08-20T17:37:33.749Z,18.10
2022-08-20T17:40:38.566Z,17.40
2022-08-20T17:43:09.615Z,15.10
2022-08-20T17:45:43.783Z,14.10
2022-08-20T17:48:19.228Z,14.40
2022-08-20T17:50:47.023Z,15.90
2022-08-20T17:53:35.829Z,15.70
2022-08-20T17:56:24.965Z,12.00
2022-08-20T17:59:24.082Z,12.10
2022-08-20T18:02:13.448Z,12.70
2022-08-20T18:04:41.127Z,12.10
2022-08-20T18:07:31.767Z,11.70
2022-08-20T18:10:21.298Z,12.10
2022-08-20T18:13:10.593Z,11.40
2022-08-20T18:15:48.814Z,11.30
2022-08-20T18:18:34.943Z,11.90
2022-08-20T18:21:20.447Z,12.10
2022-08-20T18:23:55.893Z,12.40
2022-08-20T18:26:31.935Z,12.60
2022-08-20T18:29:07.680Z,12.90
2022-08-20T18:32:01.971Z,12.60
2022-08-20T18:34:31.397Z,14.90
2022-08-20T18:37:05.196Z,13.20
2022-08-20T18:39:39.086Z,13.60
2022-08-20T18:42:10.627Z,15.30
2022-08-20T18:44:44.482Z,15.10
2022-08-20T18:47:22.873Z,16.00
2022-08-20T18:50:07.496Z,16.70
2022-08-20T18:52:50.771Z,18.90
2022-08-20T18:55:39.327Z,10.50
2022-08-20T18:58:11.538Z,8.20
2022-08-20T19:00:48.446Z,7.90
2022-08-20T19:03:26.418Z,7.80
2022-08-20T19:06:20.747Z,7.80
2022-08-20T19:08:56.432Z,6.90
2022-08-20T19:11:55.874Z,7.00
2022-08-20T19:14:35.518Z,6.00
2022-08-20T19:17:24.652Z,7.10
2022-08-20T19:20:12.943Z,5.30
2022-08-20T19:22:43.240Z,6.00
2022-08-20T19:39:35.652Z,5.70
2022-08-20T19:42:12.182Z,6.00
2022-08-20T19:44:50.212Z,7.50
2022-08-20T19:47:26.518Z,8.30
2022-08-20T19:50:09.939Z,8.40
2022-08-20T19:52:56.884Z,9.60
2022-08-20T19:55:29.857Z,8.90
2022-08-20T19:58:01.036Z,8.90
2022-08-20T20:00:37.178Z,9.30
2022-08-20T20:03:14.089Z,9.80
2022-08-20T20:05:59.297Z,10.20
2022-08-20T20:08:30.440Z,10.30
2022-08-20T20:11:00.527Z,10.20
2022-08-20T20:13:31.263Z,10.30
2022-08-20T20:16:04.420Z,10.70
2022-08-20T20:18:36.794Z,10.10
2022-08-20T20:21:12.996Z,11.00
2022-08-20T20:23:46.436Z,11.70
2022-08-20T20:26:18.340Z,12.00
2022-08-20T20:29:00.545Z,11.60
2022-08-20T20:31:31.901Z,11.30
2022-08-20T20:34:07.494Z,11.20
2022-08-20T20:36:38.289Z,9.80
2022-08-20T20:39:28.130Z,9.70
2022-08-20T20:41:59.514Z,8.90
2022-08-20T20:44:37.061Z,10.40
2022-08-20T20:47:16.928Z,9.30
2022-08-20T20:49:56.177Z,10.70
2022-08-20T20:52:30.795Z,11.10
2022-08-20T20:55:26.817Z,9.40
2022-08-20T20:57:55.053Z,8.40
2022-08-20T21:00:28.967Z,9.70
2022-08-20T21:02:57.434Z,9.10
2022-08-20T21:05:28.653Z,9.90
2022-08-20T21:08:00.288Z,10.10
2022-08-20T21:10:35.463Z,9.10
2022-08-20T21:13:05.157Z,9.00
2022-08-20T21:15:34.285Z,8.00
2022-08-20T21:18:07.366Z,9.70
2022-08-20T21:20:35.516Z,9.60
2022-08-20T21:23:03.880Z,9.60
2022-08-20T21:25:35.155Z,10.90
2022-08-20T21:28:03.525Z,11.60
2022-08-20T21:30:31.647Z,11.60
2022-08-20T21:33:00.345Z,11.60
2022-08-20T21:35:28.301Z,15.50
2022-08-20T21:37:56.877Z,14.60
2022-08-20T21:40:28.308Z,15.70
2022-08-20T21:42:56.705Z,13.10
2022-08-20T21:45:24.433Z,17.60
2022-08-20T21:47:58.008Z,16.70
2022-08-20T21:50:26.447Z,14.80
2022-08-20T21:52:58.008Z,15.50
2022-08-20T21:55:37.429Z,16.30
2022-08-20T21:58:08.670Z,17.60
2022-08-20T22:00:54.964Z,18.10
2022-08-20T22:03:29.232Z,18.80
2022-08-20T22:06:00.509Z,20.20
2022-08-20T22:08:28.683Z,20.00
2022-08-20T22:10:59.723Z,20.90
2022-08-20T22:13:31.883Z,21.00
2022-08-20T22:16:11.510Z,21.40
2022-08-20T22:18:39.320Z,20.10
2022-08-20T22:21:14.263Z,21.00
2022-08-20T22:23:41.841Z,21.90
2022-08-20T22:26:09.896Z,22.30
2022-08-20T22:28:38.792Z,22.40
2022-08-20T22:31:07.562Z,18.80
2022-08-20T22:33:35.689Z,21.10
2022-08-20T22:36:06.342Z,20.40
2022-08-20T22:38:35.984Z,20.20
2022-08-20T22:41:08.998Z,21.70
2022-08-20T22:43:44.984Z,21.90
2022-08-20T22:46:27.092Z,23.40
2022-08-20T22:48:55.822Z,22.10
2022-08-20T22:51:30.208Z,24.20
2022-08-20T22:54:00.243Z,23.50
2022-08-20T22:56:29.877Z,21.80
2022-08-20T22:58:59.496Z,21.60
2022-08-20T23:01:28.772Z,21.50
2022-08-20T23:04:27.849Z,21.20
2022-08-20T23:06:57.600Z,22.10
2022-08-20T23:09:26.628Z,22.40
2022-08-20T23:11:54.683Z,22.10
2022-08-20T23:14:22.309Z,22.00
2022-08-20T23:17:12.683Z,20.10
2022-08-20T23:19:42.039Z,21.10
2022-08-20T23:22:11.567Z,22.00
2022-08-20T23:24:39.744Z,23.50
2022-08-20T23:27:09.949Z,22.40
2022-08-20T23:29:37.732Z,23.40
2022-08-20T23:32:05.704Z,22.70
2022-08-20T23:34:33.577Z,22.70
2022-08-20T23:37:02.469Z,22.60
2022-08-20T23:39:31.243Z,22.30
2022-08-20T23:41:59.860Z,21.60
2022-08-20T23:44:28.274Z,22.70
2022-08-20T23:46:58.309Z,24.00
2022-08-20T23:49:27.897Z,22.60
2022-08-20T23:51:55.506Z,24.40
2022-08-20T23:54:22.977Z,23.10
2022-08-20T23:56:50.421Z,24.20
2022-08-20T23:59:17.883Z,24.00
